createdAt,value
2023-09-05T00:29:12.028Z,12
2023-09-05T00:59:18.360Z,9.8
2023-09-05T01:29:28.038Z,9.2
2023-09-05T01:59:33.477Z,10.1
2023-09-05T02:29:55.894Z,12.5
2023-09-05T02:59:43.098Z,9.8
2023-09-05T03:29:51.071Z,10.8
2023-09-05T03:59:47.073Z,11
2023-09-05T04:30:27.343Z,11.4
2023-09-05T05:29:53.026Z,10.2
2023-09-05T05:59:58.195Z,8.7
2023-09-05T07:00:10.219Z,4.8
2023-09-05T07:30:20.511Z,6.6
2023-09-05T08:00:06.745Z,5.2
2023-09-05T08:30:24.183Z,7.5
2023-09-05T09:30:29.152Z,6.5
2023-09-05T10:30:20.475Z,5.7
2023-09-05T11:00:42.645Z,6.1
2023-09-05T11:30:31.158Z,7.2
2023-09-05T12:00:46.920Z,4.9
2023-09-05T12:30:45.499Z,7.3
2023-09-05T13:00:49.594Z,5.5
2023-09-05T13:30:54.700Z,4.9
2023-09-05T14:00:59.724Z,5.8
2023-09-05T14:31:03.007Z,5.8
2023-09-05T15:01:18.664Z,3.8
2023-09-05T15:31:12.824Z,3.9
2023-09-05T16:01:33.723Z,3.6
2023-09-05T16:31:24.691Z,3.2
2023-09-05T17:01:39.052Z,4.5
2023-09-05T17:31:42.554Z,4.4
2023-09-05T18:01:43.785Z,4.7
2023-09-05T18:31:45.492Z,5.6
2023-09-05T19:31:56.658Z,4.9
2023-09-05T20:01:59.486Z,5.6
2023-09-05T20:32:05.305Z,6.9
2023-09-05T21:02:06.826Z,5.6
2023-09-05T21:32:11.495Z,5.4
2023-09-05T22:02:15.056Z,8.8
2023-09-05T22:32:20.580Z,8.7
2023-09-05T23:02:37.360Z,5
2023-09-05T23:32:27.758Z,7.3
